createdAt,value
2017-11-03T00:00:22.482Z,0
2017-11-03T00:01:24.045Z,0
2017-11-03T00:02:23.134Z,0
2017-11-03T00:03:22.516Z,0
2017-11-03T00:04:23.163Z,0
2017-11-03T00:05:23.455Z,0
2017-11-03T00:06:22.977Z,0
2017-11-03T00:07:24.045Z,0
2017-11-03T00:08:23.327Z,0
2017-11-03T00:09:23.221Z,0
2017-11-03T00:10:23.500Z,0
2017-11-03T00:11:22.731Z,0
2017-11-03T00:12:22.645Z,0
2017-11-03T00:13:22.888Z,0
2017-11-03T00:14:23.620Z,0
2017-11-03T00:15:22.755Z,0
2017-11-03T00:16:22.617Z,0
2017-11-03T00:17:22.607Z,0
2017-11-03T00:18:22.499Z,0
2017-11-03T00:19:22.883Z,0
2017-11-03T00:20:23.134Z,0
2017-11-03T00:21:23.151Z,0
2017-11-03T00:22:23.144Z,0
2017-11-03T00:23:23.389Z,0
2017-11-03T00:24:22.394Z,0
2017-11-03T00:25:23.880Z,0
2017-11-03T00:26:22.991Z,0
2017-11-03T00:27:23.399Z,0
2017-11-03T00:28:22.833Z,0
2017-11-03T00:29:23.106Z,0
2017-11-03T00:30:23.320Z,0
2017-11-03T00:31:23.344Z,0
2017-11-03T00:32:22.689Z,0
2017-11-03T00:33:22.938Z,0
2017-11-03T00:34:23.218Z,0
2017-11-03T00:35:22.412Z,0
2017-11-03T00:36:23.139Z,0
2017-11-03T00:37:23.307Z,0
2017-11-03T00:38:23.733Z,0
2017-11-03T00:39:23.841Z,0
2017-11-03T00:40:23.069Z,0
2017-11-03T00:41:23.776Z,0
2017-11-03T00:42:23.272Z,0
2017-11-03T00:43:23.743Z,0
2017-11-03T00:44:22.901Z,0
2017-11-03T00:45:23.115Z,0
2017-11-03T00:46:23.975Z,0
2017-11-03T00:47:22.719Z,0
2017-11-03T00:48:22.537Z,0
2017-11-03T00:49:22.686Z,0
2017-11-03T00:50:22.942Z,0
2017-11-03T00:51:23.547Z,0
2017-11-03T00:52:22.840Z,0
2017-11-03T00:53:23.269Z,0
2017-11-03T00:54:23.226Z,0
2017-11-03T00:55:23.147Z,0
2017-11-03T00:56:23.781Z,0
2017-11-03T00:57:23.021Z,0
2017-11-03T00:58:22.883Z,0
2017-11-03T00:59:22.801Z,0
2017-11-03T01:00:22.997Z,0
2017-11-03T01:01:23.484Z,0
2017-11-03T01:02:22.839Z,0
2017-11-03T01:03:23.133Z,0
2017-11-03T01:04:23.054Z,0
2017-11-03T01:05:22.752Z,0
2017-11-03T01:06:23.043Z,0
2017-11-03T01:07:23.594Z,0
2017-11-03T01:08:23.832Z,0
2017-11-03T01:09:22.661Z,0
2017-11-03T01:10:22.972Z,0
2017-11-03T01:11:22.992Z,0
2017-11-03T01:12:23.514Z,0
2017-11-03T01:13:23.192Z,0
2017-11-03T01:14:23.368Z,0
2017-11-03T01:15:22.722Z,0
2017-11-03T01:16:22.376Z,0
2017-11-03T01:17:23.691Z,0
2017-11-03T01:18:22.707Z,0
2017-11-03T01:19:23.020Z,0
2017-11-03T01:20:23.194Z,0
2017-11-03T01:21:23.077Z,0
2017-11-03T01:22:23.247Z,0
2017-11-03T01:23:23.433Z,0
2017-11-03T01:24:23.008Z,0
2017-11-03T01:25:23.207Z,0
2017-11-03T01:26:23.473Z,0
2017-11-03T01:27:22.738Z,0
2017-11-03T01:28:22.950Z,0
2017-11-03T01:29:23.267Z,0
2017-11-03T01:30:23.001Z,0
2017-11-03T01:31:22.843Z,0
2017-11-03T01:32:22.762Z,0
2017-11-03T01:33:22.979Z,0
2017-11-03T01:34:23.694Z,0
2017-11-03T01:35:22.559Z,0
2017-11-03T01:36:22.335Z,0
2017-11-03T01:37:23.264Z,0
2017-11-03T01:38:23.235Z,0
2017-11-03T01:39:23.493Z,0
2017-11-03T01:40:22.729Z,0
2017-11-03T01:41:23.405Z,0
2017-11-03T01:42:23.738Z,0
2017-11-03T01:43:22.613Z,0
2017-11-03T01:44:22.760Z,0
2017-11-03T01:45:22.992Z,0
2017-11-03T01:46:23.159Z,0
2017-11-03T01:47:22.900Z,0
2017-11-03T01:48:23.276Z,0
2017-11-03T01:49:23.017Z,0
2017-11-03T01:50:23.641Z,0
2017-11-03T01:51:22.564Z,0
2017-11-03T01:52:22.475Z,0
2017-11-03T01:53:22.670Z,0
2017-11-03T01:54:22.606Z,0
2017-11-03T01:55:22.858Z,0
2017-11-03T01:56:23.095Z,0
2017-11-03T01:57:23.602Z,0
2017-11-03T01:58:22.645Z,0
2017-11-03T01:59:23.227Z,0
2017-11-03T02:00:23.355Z,0
2017-11-03T02:01:23.627Z,0
2017-11-03T02:02:22.581Z,0
2017-11-03T02:03:22.874Z,0
2017-11-03T02:04:23.015Z,0
2017-11-03T02:05:23.258Z,0
2017-11-03T02:06:23.510Z,0
2017-11-03T02:07:22.928Z,0
2017-11-03T02:08:23.166Z,0
2017-11-03T02:09:23.556Z,0
2017-11-03T02:10:22.370Z,0
2017-11-03T02:11:23.955Z,0
2017-11-03T02:12:23.382Z,0
2017-11-03T02:13:23.655Z,0
2017-11-03T02:14:23.106Z,0
2017-11-03T02:15:23.126Z,0
2017-11-03T02:16:23.229Z,0
2017-11-03T02:17:23.088Z,0
2017-11-03T02:18:23.122Z,0
2017-11-03T02:19:23.135Z,0
2017-11-03T02:20:23.037Z,0
2017-11-03T02:21:23.709Z,0
2017-11-03T02:22:22.948Z,0
2017-11-03T02:23:23.410Z,0
2017-11-03T02:24:22.441Z,0
2017-11-03T02:25:23.807Z,0
2017-11-03T02:26:23.105Z,0
2017-11-03T02:27:23.118Z,0
2017-11-03T02:28:22.953Z,0
2017-11-03T02:29:23.232Z,0
2017-11-03T02:30:23.260Z,0
2017-11-03T02:31:23.961Z,0
2017-11-03T02:32:23.093Z,0
2017-11-03T02:33:23.418Z,0
2017-11-03T02:34:23.418Z,0
2017-11-03T02:35:23.717Z,0
2017-11-03T02:36:22.927Z,0
2017-11-03T02:37:23.235Z,0
2017-11-03T02:38:23.487Z,0
2017-11-03T02:39:22.970Z,0
2017-11-03T02:40:23.041Z,0
2017-11-03T02:41:23.190Z,0
2017-11-03T02:42:23.903Z,0
2017-11-03T02:43:22.763Z,0
2017-11-03T02:44:22.306Z,0
2017-11-03T02:45:23.577Z,0
2017-11-03T02:46:22.870Z,0
2017-11-03T02:47:23.572Z,0
2017-11-03T02:48:22.957Z,0
2017-11-03T02:49:23.000Z,0
2017-11-03T02:50:23.464Z,0
2017-11-03T02:51:22.323Z,0
2017-11-03T02:52:23.668Z,0
2017-11-03T02:53:22.824Z,0
2017-11-03T02:54:22.756Z,0
2017-11-03T02:55:23.104Z,0
2017-11-03T02:56:25.306Z,0
2017-11-03T02:57:23.947Z,0
2017-11-03T02:58:22.870Z,0
2017-11-03T02:59:22.694Z,0
2017-11-03T03:00:22.880Z,0
2017-11-03T03:01:23.201Z,0
2017-11-03T03:02:23.423Z,0
2017-11-03T03:03:23.683Z,0
2017-11-03T03:04:22.987Z,0
2017-11-03T03:05:22.791Z,0
2017-11-03T03:06:23.128Z,0
2017-11-03T03:07:23.638Z,0
2017-11-03T03:08:22.905Z,0
2017-11-03T03:09:22.701Z,0
2017-11-03T03:10:22.665Z,0
2017-11-03T03:11:22.546Z,0
2017-11-03T03:12:22.761Z,0
2017-11-03T03:13:23.374Z,0
2017-11-03T03:14:23.360Z,0
2017-11-03T03:15:23.230Z,0
2017-11-03T03:16:23.049Z,0
2017-11-03T03:17:23.219Z,0
2017-11-03T03:18:24.708Z,0
2017-11-03T03:19:22.604Z,0
2017-11-03T03:20:22.405Z,0
2017-11-03T03:21:22.774Z,0
2017-11-03T03:22:23.021Z,0
2017-11-03T03:23:23.746Z,0
2017-11-03T03:24:22.940Z,0
2017-11-03T03:25:22.848Z,0
2017-11-03T03:27:17.528Z,0
2017-11-03T03:28:17.561Z,0
2017-11-03T03:29:18.095Z,0
2017-11-03T03:30:18.106Z,0
2017-11-03T03:31:18.119Z,0
2017-11-03T03:32:18.219Z,0
2017-11-03T03:33:18.440Z,0
2017-11-03T03:34:17.363Z,0
2017-11-03T03:35:18.684Z,0
2017-11-03T03:36:17.886Z,0
2017-11-03T03:37:17.695Z,0
2017-11-03T03:38:18.086Z,0
2017-11-03T03:39:17.906Z,0
2017-11-03T03:40:18.180Z,0
2017-11-03T03:41:18.309Z,0
2017-11-03T03:42:18.579Z,0
2017-11-03T03:43:17.443Z,0
2017-11-03T03:44:17.687Z,0
2017-11-03T03:45:17.582Z,0
2017-11-03T03:46:18.101Z,0
2017-11-03T03:47:17.942Z,0
2017-11-03T03:48:18.333Z,0
2017-11-03T03:49:17.563Z,0
2017-11-03T03:50:17.439Z,0
2017-11-03T03:51:17.637Z,0
2017-11-03T03:52:17.795Z,0
2017-11-03T03:53:18.055Z,0
2017-11-03T03:54:17.948Z,0
2017-11-03T03:55:18.088Z,0
2017-11-03T03:56:18.300Z,0
2017-11-03T03:57:18.849Z,0
2017-11-03T03:58:18.126Z,0
2017-11-03T03:59:18.098Z,0
2017-11-03T04:00:17.894Z,0
2017-11-03T04:01:18.284Z,0
2017-11-03T04:02:17.847Z,0
2017-11-03T04:03:18.046Z,0
2017-11-03T04:04:17.922Z,0
2017-11-03T04:05:18.230Z,0
2017-11-03T04:06:18.397Z,0
2017-11-03T04:07:17.601Z,0
2017-11-03T04:08:17.533Z,0
2017-11-03T04:09:21.010Z,0
2017-11-03T04:10:17.834Z,0
2017-11-03T04:11:17.954Z,0
2017-11-03T04:12:18.278Z,0
2017-11-03T04:13:18.649Z,0
2017-11-03T04:14:18.625Z,0
2017-11-03T04:15:17.478Z,0
2017-11-03T04:16:17.378Z,0
2017-11-03T04:17:18.133Z,0
2017-11-03T04:18:17.987Z,0
2017-11-03T04:19:18.202Z,0
2017-11-03T04:20:17.941Z,0
2017-11-03T04:21:18.207Z,0
2017-11-03T04:22:17.949Z,0
2017-11-03T04:23:17.671Z,0
2017-11-03T04:24:17.803Z,0
2017-11-03T04:25:17.992Z,0
2017-11-03T04:26:17.827Z,0
2017-11-03T04:27:18.035Z,0
2017-11-03T04:28:17.942Z,0
2017-11-03T04:29:17.570Z,0
2017-11-03T04:30:17.385Z,0
2017-11-03T04:31:18.535Z,0
2017-11-03T04:32:17.892Z,0
2017-11-03T04:33:17.691Z,0
2017-11-03T04:34:17.832Z,0
2017-11-03T04:35:18.534Z,0
2017-11-03T04:36:17.712Z,0
2017-11-03T04:37:18.301Z,0
2017-11-03T04:38:18.408Z,0
2017-11-03T04:39:17.330Z,0
2017-11-03T04:40:18.179Z,0
2017-11-03T04:41:18.234Z,0
2017-11-03T04:42:18.680Z,0
2017-11-03T04:43:17.553Z,0
2017-11-03T04:44:17.337Z,0
2017-11-03T04:45:18.074Z,0
2017-11-03T04:46:18.030Z,0
2017-11-03T04:47:18.745Z,0
2017-11-03T04:48:17.951Z,0
2017-11-03T04:49:18.149Z,0
2017-11-03T04:50:17.854Z,0
2017-11-03T04:51:18.053Z,0
2017-11-03T04:52:18.720Z,0
2017-11-03T04:53:17.440Z,0
2017-11-03T04:54:17.673Z,0
2017-11-03T04:55:17.618Z,0
2017-11-03T04:56:17.433Z,0
2017-11-03T04:57:18.828Z,0
2017-11-03T04:58:17.606Z,0
2017-11-03T04:59:17.802Z,0
2017-11-03T05:00:17.714Z,0
2017-11-03T05:01:18.017Z,0
2017-11-03T05:02:18.436Z,0
2017-11-03T05:03:18.385Z,0
2017-11-03T05:04:17.550Z,0
2017-11-03T05:05:17.699Z,0
2017-11-03T05:06:34.839Z,0
2017-11-03T05:07:35.051Z,0
2017-11-03T05:08:35.359Z,0
2017-11-03T05:09:35.474Z,0
2017-11-03T05:10:35.702Z,0
2017-11-03T05:11:34.887Z,0
2017-11-03T05:12:35.509Z,0
2017-11-03T05:13:35.808Z,0
2017-11-03T05:14:35.038Z,0
2017-11-03T05:15:35.315Z,0
2017-11-03T05:16:35.058Z,0
2017-11-03T05:17:35.026Z,0
2017-11-03T05:18:35.126Z,0
2017-11-03T05:19:35.059Z,0
2017-11-03T05:20:35.205Z,0
2017-11-03T05:21:35.589Z,0
2017-11-03T05:22:51.299Z,0
2017-11-03T05:23:51.121Z,0
2017-11-03T05:24:50.964Z,0
2017-11-03T05:25:50.724Z,0
2017-11-03T05:26:50.451Z,0
2017-11-03T05:27:51.655Z,0
2017-11-03T05:28:51.441Z,0
2017-11-03T05:29:51.294Z,0
2017-11-03T05:30:51.679Z,0
2017-11-03T05:31:51.474Z,0
2017-11-03T05:32:51.860Z,0
2017-11-03T05:33:51.262Z,0
2017-11-03T05:34:51.106Z,0
2017-11-03T05:35:50.896Z,0
2017-11-03T05:36:51.133Z,0
2017-11-03T05:37:50.878Z,0
2017-11-03T05:38:51.611Z,0
2017-11-03T05:39:51.055Z,0
2017-11-03T05:40:50.883Z,0
2017-11-03T05:41:51.099Z,0
2017-11-03T05:42:51.013Z,0
2017-11-03T05:43:51.333Z,0
2017-11-03T05:44:51.526Z,0
2017-11-03T05:45:51.752Z,0
2017-11-03T05:46:51.854Z,0
2017-11-03T05:47:51.113Z,0
2017-11-03T05:48:51.743Z,0
2017-11-03T05:49:51.440Z,0
2017-11-03T05:50:51.232Z,0
2017-11-03T05:51:51.144Z,0
2017-11-03T05:52:51.314Z,0
2017-11-03T05:53:51.862Z,0
2017-11-03T05:54:51.140Z,0
2017-11-03T05:55:51.371Z,0
2017-11-03T05:56:51.368Z,0
2017-11-03T05:57:51.682Z,0
2017-11-03T05:58:52.614Z,0
2017-11-03T05:59:51.759Z,0
2017-11-03T06:00:50.936Z,0
2017-11-03T06:01:50.735Z,0
2017-11-03T06:02:50.996Z,0
2017-11-03T06:03:51.077Z,0
2017-11-03T06:04:51.486Z,0
2017-11-03T06:05:51.366Z,0
2017-11-03T06:06:51.741Z,0
2017-11-03T06:07:50.733Z,0
2017-11-03T06:08:50.714Z,0
2017-11-03T06:09:50.479Z,0
2017-11-03T06:10:51.740Z,0
2017-11-03T06:11:51.882Z,0
2017-11-03T06:12:50.692Z,0
2017-11-03T06:13:50.587Z,0
2017-11-03T06:14:51.337Z,0
2017-11-03T06:15:51.575Z,0
2017-11-03T06:16:51.662Z,0
2017-11-03T06:17:51.815Z,0
2017-11-03T06:18:50.716Z,1
2017-11-03T06:19:51.916Z,1
2017-11-03T06:20:51.136Z,1
2017-11-03T06:21:51.502Z,1
2017-11-03T06:22:52.296Z,1
2017-11-03T06:23:51.194Z,1
2017-11-03T06:24:51.440Z,1
2017-11-03T06:25:51.175Z,2
2017-11-03T06:26:51.474Z,2
2017-11-03T06:27:51.897Z,2
2017-11-03T06:28:51.956Z,2
2017-11-03T06:29:50.766Z,2
2017-11-03T06:31:58.332Z,3
2017-11-03T06:32:58.115Z,3
2017-11-03T06:33:58.791Z,3
2017-11-03T06:35:11.902Z,4
2017-11-03T06:36:12.392Z,4
2017-11-03T06:37:11.404Z,4
2017-11-03T06:38:11.325Z,4
2017-11-03T06:39:12.507Z,5
2017-11-03T06:40:11.310Z,5
2017-11-03T06:41:12.634Z,6
2017-11-03T06:42:11.716Z,6
2017-11-03T06:43:11.918Z,7
2017-11-03T06:44:12.248Z,7
2017-11-03T06:45:13.055Z,8
2017-11-03T06:46:12.071Z,8
2017-11-03T06:47:12.510Z,9
2017-11-03T06:48:11.710Z,9
2017-11-03T06:49:11.509Z,10
2017-11-03T06:50:11.800Z,11
2017-11-03T06:51:12.558Z,11
2017-11-03T06:52:11.465Z,11
2017-11-03T06:53:12.841Z,12
2017-11-03T06:54:12.677Z,12
2017-11-03T06:55:12.070Z,11
2017-11-03T06:56:12.404Z,11
2017-11-03T06:57:12.357Z,11
2017-11-03T06:58:12.716Z,12
2017-11-03T06:59:12.132Z,12
2017-11-03T07:00:12.129Z,12
2017-11-03T07:01:12.443Z,12
2017-11-03T07:02:12.233Z,12
2017-11-03T07:03:13.174Z,13
2017-11-03T07:04:11.946Z,13
2017-11-03T07:05:12.405Z,13
2017-11-03T07:06:13.113Z,14
2017-11-03T07:07:12.559Z,14
2017-11-03T07:08:11.835Z,14
2017-11-03T07:09:12.324Z,15
2017-11-03T07:10:12.676Z,15
2017-11-03T07:11:11.958Z,15
2017-11-03T07:12:12.173Z,16
2017-11-03T07:13:12.135Z,16
2017-11-03T07:14:12.517Z,17
2017-11-03T07:15:12.569Z,17
2017-11-03T07:16:12.524Z,17
2017-11-03T07:17:11.935Z,18
2017-11-03T07:18:12.747Z,19
2017-11-03T07:19:12.207Z,19
2017-11-03T07:20:12.133Z,20
2017-11-03T07:21:12.057Z,21
2017-11-03T07:22:12.446Z,21
2017-11-03T07:23:13.192Z,22
2017-11-03T07:24:12.095Z,23
2017-11-03T07:25:11.888Z,23
2017-11-03T07:26:12.145Z,23
2017-11-03T07:27:12.132Z,23
2017-11-03T07:28:12.937Z,23
2017-11-03T07:29:11.794Z,23
2017-11-03T07:30:12.394Z,23
2017-11-03T07:31:12.673Z,23
2017-11-03T07:32:12.011Z,23
2017-11-03T07:33:12.648Z,23
2017-11-03T07:34:12.112Z,23
2017-11-03T07:35:12.581Z,23
2017-11-03T07:36:11.967Z,23
2017-11-03T07:37:11.877Z,23
2017-11-03T07:38:11.917Z,23
2017-11-03T07:39:12.631Z,23
2017-11-03T07:40:11.993Z,23
2017-11-03T07:41:12.239Z,23
2017-11-03T07:42:12.259Z,24
2017-11-03T07:43:12.720Z,24
2017-11-03T07:44:11.927Z,25
2017-11-03T07:45:12.164Z,26
2017-11-03T07:46:12.554Z,27
2017-11-03T07:47:11.530Z,27
2017-11-03T07:48:11.901Z,28
2017-11-03T07:49:12.514Z,28
2017-11-03T07:50:11.865Z,29
2017-11-03T07:51:12.653Z,29
2017-11-03T07:52:12.212Z,30
2017-11-03T07:53:12.645Z,31
2017-11-03T07:54:11.934Z,31
2017-11-03T07:55:12.156Z,32
2017-11-03T07:56:12.842Z,32
2017-11-03T07:57:12.568Z,31
2017-11-03T07:58:11.969Z,31
2017-11-03T07:59:12.326Z,31
2017-11-03T08:00:12.633Z,32
2017-11-03T08:01:12.529Z,33
2017-11-03T08:02:11.537Z,33
2017-11-03T08:03:11.447Z,33
2017-11-03T08:04:12.403Z,33
2017-11-03T08:05:11.677Z,33
2017-11-03T08:06:11.969Z,35
2017-11-03T08:07:12.639Z,37
2017-11-03T08:08:11.814Z,40
2017-11-03T08:09:12.138Z,42
2017-11-03T08:10:12.350Z,44
2017-11-03T08:11:12.277Z,46
2017-11-03T08:12:12.918Z,48
2017-11-03T08:13:12.102Z,49
2017-11-03T08:14:12.411Z,51
2017-11-03T08:15:13.084Z,51
2017-11-03T08:16:11.400Z,51
2017-11-03T08:17:13.130Z,51
2017-11-03T08:18:12.705Z,52
2017-11-03T08:19:12.309Z,52
2017-11-03T08:20:11.893Z,53
2017-11-03T08:21:12.064Z,54
2017-11-03T08:22:12.839Z,54
2017-11-03T08:23:12.203Z,54
2017-11-03T08:24:13.039Z,55
2017-11-03T08:25:12.226Z,56
2017-11-03T08:26:12.276Z,57
2017-11-03T08:27:13.118Z,57
2017-11-03T08:28:12.515Z,58
2017-11-03T08:29:11.432Z,58
2017-11-03T08:30:12.764Z,59
2017-11-03T08:31:11.757Z,60
2017-11-03T08:32:12.168Z,61
2017-11-03T08:33:12.559Z,63
2017-11-03T08:34:12.492Z,64
2017-11-03T08:35:12.544Z,66
2017-11-03T08:36:11.579Z,66
2017-11-03T08:37:11.509Z,66
2017-11-03T08:38:12.581Z,66
2017-11-03T08:39:12.248Z,68
2017-11-03T08:40:12.564Z,68
2017-11-03T08:41:12.174Z,68
2017-11-03T08:42:12.366Z,69
2017-11-03T08:43:12.899Z,69
2017-11-03T08:44:11.912Z,70
2017-11-03T08:45:12.123Z,70
2017-11-03T08:46:12.158Z,73
2017-11-03T08:47:12.217Z,73
2017-11-03T08:48:11.558Z,74
2017-11-03T08:49:12.027Z,74
2017-11-03T08:50:12.043Z,75
2017-11-03T08:51:12.012Z,75
2017-11-03T08:52:12.021Z,75
2017-11-03T08:53:12.340Z,76
2017-11-03T08:54:12.024Z,77
2017-11-03T08:55:12.617Z,76
2017-11-03T08:56:11.556Z,77
2017-11-03T08:57:11.952Z,76
2017-11-03T08:58:12.354Z,75
2017-11-03T08:59:12.338Z,75
2017-11-03T09:00:13.113Z,74
2017-11-03T09:01:11.623Z,72
2017-11-03T09:02:12.008Z,72
2017-11-03T09:03:12.034Z,73
2017-11-03T09:04:11.942Z,75
2017-11-03T09:05:12.179Z,76
2017-11-03T09:06:12.663Z,77
2017-11-03T09:07:12.021Z,79
2017-11-03T09:08:11.974Z,80
2017-11-03T09:09:11.922Z,82
2017-11-03T09:10:12.845Z,83
2017-11-03T09:11:11.901Z,83
2017-11-03T09:12:11.794Z,83
2017-11-03T09:13:12.077Z,82
2017-11-03T09:14:11.952Z,82
2017-11-03T09:15:12.590Z,82
2017-11-03T09:16:11.438Z,82
2017-11-03T09:17:11.474Z,82
2017-11-03T09:18:12.012Z,81
2017-11-03T09:19:12.176Z,81
2017-11-03T09:20:12.945Z,80
2017-11-03T09:21:12.137Z,75
2017-11-03T09:22:12.025Z,74
2017-11-03T09:23:12.221Z,77
2017-11-03T09:24:12.158Z,83
2017-11-03T09:25:12.456Z,84
2017-11-03T09:26:12.368Z,90
2017-11-03T09:27:12.023Z,87
2017-11-03T09:28:12.090Z,87
2017-11-03T09:29:12.018Z,80
2017-11-03T09:30:13.247Z,77
2017-11-03T09:31:12.203Z,74
2017-11-03T09:32:12.676Z,84
2017-11-03T09:33:11.879Z,86
2017-11-03T09:34:12.171Z,84
2017-11-03T09:35:12.464Z,76
2017-11-03T09:36:12.566Z,78
2017-11-03T09:37:12.052Z,89
2017-11-03T09:38:11.931Z,93
2017-11-03T09:39:12.950Z,84
2017-11-03T09:40:11.795Z,90
2017-11-03T09:41:12.555Z,94
2017-11-03T09:42:11.531Z,90
2017-11-03T09:43:12.015Z,88
2017-11-03T09:44:12.054Z,85
2017-11-03T09:45:13.095Z,79
2017-11-03T09:46:12.299Z,82
2017-11-03T09:47:12.657Z,81
2017-11-03T09:48:11.919Z,74
2017-11-03T09:49:12.259Z,72
2017-11-03T09:50:12.827Z,76
2017-11-03T09:51:13.292Z,77
2017-11-03T09:52:12.319Z,80
2017-11-03T09:53:12.272Z,79
2017-11-03T09:54:12.320Z,79
2017-11-03T09:55:12.626Z,83
2017-11-03T09:56:11.542Z,83
2017-11-03T09:57:12.197Z,76
2017-11-03T09:58:12.074Z,84
2017-11-03T09:59:11.726Z,86
2017-11-03T10:00:11.715Z,96
2017-11-03T10:01:11.675Z,101
2017-11-03T10:02:11.762Z,98
2017-11-03T10:03:12.594Z,97
2017-11-03T10:04:11.636Z,97
2017-11-03T10:05:11.670Z,93
2017-11-03T10:06:11.724Z,96
2017-11-03T10:07:12.224Z,98
2017-11-03T10:08:11.759Z,106
2017-11-03T10:09:12.620Z,102
2017-11-03T10:10:12.137Z,99
2017-11-03T10:11:12.659Z,88
2017-11-03T10:12:12.193Z,79
2017-11-03T10:13:12.712Z,88
2017-11-03T10:14:12.644Z,88
2017-11-03T10:15:11.741Z,99
2017-11-03T10:16:12.049Z,92
2017-11-03T10:17:12.606Z,84
2017-11-03T10:18:11.752Z,85
2017-11-03T10:19:12.778Z,95
2017-11-03T10:20:11.914Z,91
2017-11-03T10:21:12.014Z,88
2017-11-03T10:22:12.212Z,88
2017-11-03T10:23:12.531Z,80
2017-11-03T10:24:11.896Z,82
2017-11-03T10:25:12.283Z,79
2017-11-03T10:26:12.552Z,74
2017-11-03T10:27:11.638Z,72
2017-11-03T10:28:11.737Z,82
2017-11-03T10:29:11.700Z,102
2017-11-03T10:30:12.135Z,105
2017-11-03T10:31:12.684Z,105
2017-11-03T10:32:12.132Z,104
2017-11-03T10:33:12.868Z,103
2017-11-03T10:34:12.334Z,107
2017-11-03T10:35:12.380Z,107
2017-11-03T10:36:13.245Z,111
2017-11-03T10:37:12.572Z,116
2017-11-03T10:38:12.002Z,111
2017-11-03T10:39:12.533Z,114
2017-11-03T10:40:12.098Z,112
2017-11-03T10:41:12.899Z,117
2017-11-03T10:42:12.564Z,111
2017-11-03T10:43:12.055Z,116
2017-11-03T10:44:11.721Z,123
2017-11-03T10:45:12.710Z,128
2017-11-03T10:46:12.263Z,123
2017-11-03T10:47:12.366Z,120
2017-11-03T10:48:12.962Z,119
2017-11-03T10:49:12.076Z,113
2017-11-03T10:50:12.115Z,115
2017-11-03T10:51:12.666Z,115
2017-11-03T10:52:11.844Z,114
2017-11-03T10:53:11.884Z,116
2017-11-03T10:54:12.608Z,113
2017-11-03T10:55:11.956Z,106
2017-11-03T10:56:12.539Z,108
2017-11-03T10:57:12.002Z,104
2017-11-03T10:58:12.032Z,111
2017-11-03T10:59:12.212Z,111
2017-11-03T11:00:12.365Z,112
2017-11-03T11:01:12.786Z,113
2017-11-03T11:02:12.198Z,115
2017-11-03T11:03:12.263Z,114
2017-11-03T11:04:12.411Z,102
2017-11-03T11:05:13.029Z,105
2017-11-03T11:06:12.531Z,111
2017-11-03T11:07:12.215Z,110
2017-11-03T11:08:12.346Z,110
2017-11-03T11:09:12.296Z,106
2017-11-03T11:10:12.798Z,97
2017-11-03T11:11:12.463Z,93
2017-11-03T11:12:11.958Z,83
2017-11-03T11:13:11.927Z,91
2017-11-03T11:14:11.951Z,93
2017-11-03T11:15:12.662Z,94
2017-11-03T11:16:12.922Z,78
2017-11-03T11:17:12.325Z,77
2017-11-03T11:18:13.797Z,90
2017-11-03T11:19:11.993Z,88
2017-11-03T11:20:12.422Z,75
2017-11-03T11:21:12.132Z,78
2017-11-03T11:22:12.206Z,77
2017-11-03T11:23:12.567Z,90
2017-11-03T11:24:12.067Z,91
2017-11-03T11:25:12.388Z,65
2017-11-03T11:26:12.714Z,57
2017-11-03T11:27:11.954Z,53
2017-11-03T11:28:12.512Z,54
2017-11-03T11:29:11.569Z,59
2017-11-03T11:30:11.469Z,65
2017-11-03T11:31:11.980Z,57
2017-11-03T11:32:12.421Z,61
2017-11-03T11:33:12.886Z,72
2017-11-03T11:34:13.000Z,83
2017-11-03T11:35:12.475Z,77
2017-11-03T11:36:12.783Z,72
2017-11-03T11:37:12.441Z,76
2017-11-03T11:38:13.261Z,79
2017-11-03T11:38:50.900Z,79
2017-11-03T11:39:51.567Z,94
2017-11-03T11:40:50.834Z,87
2017-11-03T11:41:50.961Z,72
2017-11-03T11:42:50.928Z,73
2017-11-03T11:43:51.586Z,66
2017-11-03T11:44:51.186Z,76
2017-11-03T11:45:51.235Z,71
2017-11-03T11:46:51.236Z,72
2017-11-03T11:47:52.282Z,80
2017-11-03T11:48:50.957Z,90
2017-11-03T11:49:51.840Z,77
2017-11-03T11:50:50.936Z,61
2017-11-03T11:51:50.555Z,72
2017-11-03T11:52:51.099Z,80
2017-11-03T11:53:51.183Z,85
2017-11-03T11:54:51.965Z,85
2017-11-03T11:55:51.108Z,81
2017-11-03T11:56:51.346Z,80
2017-11-03T11:57:50.780Z,86
2017-11-03T11:58:50.743Z,93
2017-11-03T11:59:51.152Z,96
2017-11-03T12:00:52.039Z,91
2017-11-03T12:01:51.227Z,83
2017-11-03T12:02:51.779Z,90
2017-11-03T12:03:51.450Z,87
2017-11-03T12:04:51.066Z,91
2017-11-03T12:05:51.540Z,92
2017-11-03T12:06:51.133Z,90
2017-11-03T12:07:50.960Z,90
2017-11-03T12:08:51.538Z,89
2017-11-03T12:09:51.438Z,88
2017-11-03T12:10:51.059Z,87
2017-11-03T12:11:52.096Z,87
2017-11-03T12:12:51.814Z,90
2017-11-03T12:13:51.032Z,92
2017-11-03T12:14:51.323Z,91
2017-11-03T12:15:50.774Z,91
2017-11-03T12:16:51.399Z,90
2017-11-03T12:17:52.414Z,89
2017-11-03T12:18:50.968Z,87
2017-11-03T12:19:51.484Z,87
2017-11-03T12:20:50.826Z,86
2017-11-03T12:21:51.936Z,87
2017-11-03T12:22:51.692Z,87
2017-11-03T12:23:51.043Z,85
2017-11-03T12:24:51.570Z,83
2017-11-03T12:25:50.993Z,84
2017-11-03T12:26:51.639Z,82
2017-11-03T12:27:51.062Z,83
2017-11-03T12:28:51.631Z,84
2017-11-03T12:29:51.402Z,83
2017-11-03T12:30:50.732Z,82
2017-11-03T12:31:51.337Z,80
2017-11-03T12:32:50.950Z,80
2017-11-03T12:33:51.607Z,79
2017-11-03T12:34:50.925Z,79
2017-11-03T12:35:51.068Z,78
2017-11-03T12:36:51.711Z,78
2017-11-03T12:37:51.187Z,78
2017-11-03T12:38:50.621Z,78
2017-11-03T12:39:51.378Z,78
2017-11-03T12:40:51.311Z,77
2017-11-03T12:41:51.087Z,75
2017-11-03T12:42:51.888Z,75
2017-11-03T12:43:51.316Z,74
2017-11-03T12:44:50.766Z,74
2017-11-03T12:45:51.263Z,74
2017-11-03T12:46:51.111Z,73
2017-11-03T12:47:51.738Z,73
2017-11-03T12:48:51.630Z,71
2017-11-03T12:49:50.956Z,69
2017-11-03T12:50:51.295Z,68
2017-11-03T12:51:50.896Z,68
2017-11-03T12:52:51.598Z,68
2017-11-03T12:53:50.981Z,68
2017-11-03T12:54:51.638Z,69
2017-11-03T12:55:51.172Z,69
2017-11-03T12:56:50.519Z,70
2017-11-03T12:57:51.272Z,70
2017-11-03T12:58:51.059Z,69
2017-11-03T12:59:51.831Z,69
2017-11-03T13:00:51.056Z,70
2017-11-03T13:01:51.720Z,71
2017-11-03T13:02:51.129Z,71
2017-11-03T13:03:51.309Z,72
2017-11-03T13:04:50.625Z,73
2017-11-03T13:05:51.035Z,73
2017-11-03T13:06:52.028Z,72
2017-11-03T13:07:51.327Z,70
2017-11-03T13:08:51.674Z,68
2017-11-03T13:09:51.450Z,66
2017-11-03T13:10:51.269Z,65
2017-11-03T13:11:51.653Z,65
2017-11-03T13:12:51.460Z,63
2017-11-03T13:13:50.999Z,62
2017-11-03T13:14:51.812Z,61
2017-11-03T13:15:51.586Z,60
2017-11-03T13:16:51.050Z,60
2017-11-03T13:17:51.450Z,61
2017-11-03T13:18:51.348Z,61
2017-11-03T13:19:50.853Z,62
2017-11-03T13:20:51.452Z,62
2017-11-03T13:21:50.798Z,62
2017-11-03T13:22:50.836Z,61
2017-11-03T13:23:52.248Z,60
2017-11-03T13:24:50.940Z,60
2017-11-03T13:25:52.055Z,59
2017-11-03T13:26:50.609Z,59
2017-11-03T13:27:51.170Z,59
2017-11-03T13:28:50.889Z,59
2017-11-03T13:29:50.912Z,59
2017-11-03T13:30:51.562Z,58
2017-11-03T13:31:50.731Z,57
2017-11-03T13:32:51.415Z,56
2017-11-03T13:33:51.794Z,55
2017-11-03T13:34:51.284Z,55
2017-11-03T13:35:50.401Z,55
2017-11-03T13:36:51.524Z,55
2017-11-03T13:37:51.103Z,55
2017-11-03T13:38:51.402Z,55
2017-11-03T13:39:50.990Z,55
2017-11-03T13:40:51.423Z,54
2017-11-03T13:41:50.969Z,54
2017-11-03T13:42:51.959Z,53
2017-11-03T13:43:50.890Z,53
2017-11-03T13:44:51.252Z,52
2017-11-03T13:45:50.923Z,52
2017-11-03T13:46:50.691Z,51
2017-11-03T13:47:51.334Z,50
2017-11-03T13:48:51.815Z,50
2017-11-03T13:49:51.195Z,49
2017-11-03T13:50:50.886Z,49
2017-11-03T13:51:50.800Z,48
2017-11-03T13:52:51.300Z,47
2017-11-03T13:53:51.115Z,47
2017-11-03T13:54:51.042Z,47
2017-11-03T13:55:51.689Z,47
2017-11-03T13:56:50.983Z,46
2017-11-03T13:57:51.249Z,46
2017-11-03T13:58:50.984Z,45
2017-11-03T13:59:51.779Z,44
2017-11-03T14:00:50.977Z,44
2017-11-03T14:01:52.657Z,44
2017-11-03T14:02:51.468Z,43
2017-11-03T14:03:51.186Z,43
2017-11-03T14:04:51.133Z,43
2017-11-03T14:05:51.553Z,43
2017-11-03T14:06:53.086Z,43
2017-11-03T14:07:50.951Z,43
2017-11-03T14:08:51.129Z,43
2017-11-03T14:09:51.006Z,43
2017-11-03T14:10:50.873Z,42
2017-11-03T14:11:52.124Z,42
2017-11-03T14:12:51.116Z,42
2017-11-03T14:13:51.211Z,41
2017-11-03T14:14:51.125Z,41
2017-11-03T14:15:51.693Z,41
2017-11-03T14:16:51.325Z,40
2017-11-03T14:17:51.086Z,40
2017-11-03T14:18:50.768Z,39
2017-11-03T14:19:51.567Z,39
2017-11-03T14:20:51.115Z,38
2017-11-03T14:21:50.788Z,38
2017-11-03T14:22:52.135Z,38
2017-11-03T14:23:50.955Z,38
2017-11-03T14:24:51.253Z,38
2017-11-03T14:25:50.553Z,37
2017-11-03T14:26:50.996Z,37
2017-11-03T14:27:51.940Z,36
2017-11-03T14:28:51.510Z,35
2017-11-03T14:29:51.014Z,33
2017-11-03T14:30:51.606Z,31